sensor_id;sensor_type;location;lat;lon;timestamp;temperature;humidity
25108;DHT22;13090;53.422;7.670;2023-07-31T00:01:00;18.90;84.60
25108;DHT22;13090;53.422;7.670;2023-07-31T00:06:21;18.90;84.60
25108;DHT22;13090;53.422;7.670;2023-07-31T00:11:43;18.90;84.70
25108;DHT22;13090;53.422;7.670;2023-07-31T00:17:04;18.90;85.10
25108;DHT22;13090;53.422;7.670;2023-07-31T00:22:26;18.90;85.60
25108;DHT22;13090;53.422;7.670;2023-07-31T00:27:48;18.90;85.80
25108;DHT22;13090;53.422;7.670;2023-07-31T00:33:08;18.90;85.90
25108;DHT22;13090;53.422;7.670;2023-07-31T00:38:29;18.90;85.80
25108;DHT22;13090;53.422;7.670;2023-07-31T00:43:52;18.90;85.90
25108;DHT22;13090;53.422;7.670;2023-07-31T00:49:13;18.90;85.80
25108;DHT22;13090;53.422;7.670;2023-07-31T00:54:34;18.80;85.80
25108;DHT22;13090;53.422;7.670;2023-07-31T00:59:56;18.80;85.80
25108;DHT22;13090;53.422;7.670;2023-07-31T01:05:17;18.80;86.00
25108;DHT22;13090;53.422;7.670;2023-07-31T01:10:48;18.80;86.00
25108;DHT22;13090;53.422;7.670;2023-07-31T01:16:11;18.70;86.10
25108;DHT22;13090;53.422;7.670;2023-07-31T01:21:47;18.70;85.80
25108;DHT22;13090;53.422;7.670;2023-07-31T01:27:17;18.60;87.10
25108;DHT22;13090;53.422;7.670;2023-07-31T01:32:41;18.60;86.00
25108;DHT22;13090;53.422;7.670;2023-07-31T01:38:03;18.50;86.00
25108;DHT22;13090;53.422;7.670;2023-07-31T01:43:26;18.50;86.40
25108;DHT22;13090;53.422;7.670;2023-07-31T01:48:47;18.50;86.50
25108;DHT22;13090;53.422;7.670;2023-07-31T01:54:08;18.50;87.40
25108;DHT22;13090;53.422;7.670;2023-07-31T01:59:30;18.50;86.70
25108;DHT22;13090;53.422;7.670;2023-07-31T02:04:51;18.50;86.90
25108;DHT22;13090;53.422;7.670;2023-07-31T02:10:11;18.50;86.80
25108;DHT22;13090;53.422;7.670;2023-07-31T02:15:35;18.40;86.80
25108;DHT22;13090;53.422;7.670;2023-07-31T02:20:55;18.40;87.20
25108;DHT22;13090;53.422;7.670;2023-07-31T02:26:16;18.30;87.30
25108;DHT22;13090;53.422;7.670;2023-07-31T02:31:39;18.20;88.00
25108;DHT22;13090;53.422;7.670;2023-07-31T02:36:59;18.10;87.80
25108;DHT22;13090;53.422;7.670;2023-07-31T02:42:20;18.10;88.00
25108;DHT22;13090;53.422;7.670;2023-07-31T02:47:42;18.00;88.10
25108;DHT22;13090;53.422;7.670;2023-07-31T02:53:03;18.00;88.50
25108;DHT22;13090;53.422;7.670;2023-07-31T02:58:24;17.90;88.50
25108;DHT22;13090;53.422;7.670;2023-07-31T03:03:46;17.90;88.80
25108;DHT22;13090;53.422;7.670;2023-07-31T03:09:08;17.90;89.20
25108;DHT22;13090;53.422;7.670;2023-07-31T03:14:28;17.80;89.10
25108;DHT22;13090;53.422;7.670;2023-07-31T03:19:51;17.80;89.30
25108;DHT22;13090;53.422;7.670;2023-07-31T03:25:11;17.80;89.60
25108;DHT22;13090;53.422;7.670;2023-07-31T03:30:36;17.80;89.50
25108;DHT22;13090;53.422;7.670;2023-07-31T03:35:58;17.80;89.80
25108;DHT22;13090;53.422;7.670;2023-07-31T03:41:19;17.80;89.80
25108;DHT22;13090;53.422;7.670;2023-07-31T03:46:40;17.80;89.70
25108;DHT22;13090;53.422;7.670;2023-07-31T03:52:03;17.80;89.80
25108;DHT22;13090;53.422;7.670;2023-07-31T03:57:24;17.80;90.00
25108;DHT22;13090;53.422;7.670;2023-07-31T04:02:44;17.80;89.90
25108;DHT22;13090;53.422;7.670;2023-07-31T04:08:07;17.80;90.00
25108;DHT22;13090;53.422;7.670;2023-07-31T04:13:29;17.80;90.10
25108;DHT22;13090;53.422;7.670;2023-07-31T04:18:50;17.80;90.10
25108;DHT22;13090;53.422;7.670;2023-07-31T04:24:12;17.80;90.10
25108;DHT22;13090;53.422;7.670;2023-07-31T04:29:34;17.80;90.20
25108;DHT22;13090;53.422;7.670;2023-07-31T04:34:55;17.80;90.20
25108;DHT22;13090;53.422;7.670;2023-07-31T04:40:17;17.80;90.20
25108;DHT22;13090;53.422;7.670;2023-07-31T04:45:38;17.90;90.30
25108;DHT22;13090;53.422;7.670;2023-07-31T04:50:59;17.90;90.20
25108;DHT22;13090;53.422;7.670;2023-07-31T04:56:21;17.90;90.20
25108;DHT22;13090;53.422;7.670;2023-07-31T05:01:41;17.90;90.30
25108;DHT22;13090;53.422;7.670;2023-07-31T05:07:03;17.90;90.30
25108;DHT22;13090;53.422;7.670;2023-07-31T05:12:25;17.90;90.30
25108;DHT22;13090;53.422;7.670;2023-07-31T05:17:45;18.00;90.50
25108;DHT22;13090;53.422;7.670;2023-07-31T05:23:06;18.00;90.50
25108;DHT22;13090;53.422;7.670;2023-07-31T05:28:28;18.10;90.50
25108;DHT22;13090;53.422;7.670;2023-07-31T05:33:49;18.10;90.50
25108;DHT22;13090;53.422;7.670;2023-07-31T05:39:10;18.20;90.50
25108;DHT22;13090;53.422;7.670;2023-07-31T05:44:32;18.20;90.50
25108;DHT22;13090;53.422;7.670;2023-07-31T05:49:53;18.20;90.50
25108;DHT22;13090;53.422;7.670;2023-07-31T05:55:14;18.20;90.40
25108;DHT22;13090;53.422;7.670;2023-07-31T06:00:36;18.30;90.40
25108;DHT22;13090;53.422;7.670;2023-07-31T06:05:57;18.20;90.40
25108;DHT22;13090;53.422;7.670;2023-07-31T06:11:19;18.30;90.40
25108;DHT22;13090;53.422;7.670;2023-07-31T06:16:41;18.20;90.40
25108;DHT22;13090;53.422;7.670;2023-07-31T06:22:02;18.30;90.50
25108;DHT22;13090;53.422;7.670;2023-07-31T06:27:23;18.30;90.50
25108;DHT22;13090;53.422;7.670;2023-07-31T06:32:45;18.30;90.60
25108;DHT22;13090;53.422;7.670;2023-07-31T06:38:06;18.40;90.70
25108;DHT22;13090;53.422;7.670;2023-07-31T06:43:27;18.50;90.70
25108;DHT22;13090;53.422;7.670;2023-07-31T06:48:51;18.60;90.80
25108;DHT22;13090;53.422;7.670;2023-07-31T06:54:11;18.70;90.70
25108;DHT22;13090;53.422;7.670;2023-07-31T06:59:32;18.80;90.50
25108;DHT22;13090;53.422;7.670;2023-07-31T07:04:55;18.80;90.50
25108;DHT22;13090;53.422;7.670;2023-07-31T07:10:16;18.80;90.60
25108;DHT22;13090;53.422;7.670;2023-07-31T07:15:36;18.80;90.60
25108;DHT22;13090;53.422;7.670;2023-07-31T07:20:59;18.80;90.70
25108;DHT22;13090;53.422;7.670;2023-07-31T07:26:20;18.90;90.80
25108;DHT22;13090;53.422;7.670;2023-07-31T07:31:40;19.00;90.60
25108;DHT22;13090;53.422;7.670;2023-07-31T07:37:03;19.00;90.60
25108;DHT22;13090;53.422;7.670;2023-07-31T07:42:24;19.00;90.70
25108;DHT22;13090;53.422;7.670;2023-07-31T07:47:45;19.10;90.70
25108;DHT22;13090;53.422;7.670;2023-07-31T07:53:07;19.10;90.70
25108;DHT22;13090;53.422;7.670;2023-07-31T07:58:28;19.00;90.80
25108;DHT22;13090;53.422;7.670;2023-07-31T08:03:49;19.00;90.80
25108;DHT22;13090;53.422;7.670;2023-07-31T08:09:12;19.00;90.90
25108;DHT22;13090;53.422;7.670;2023-07-31T08:14:32;19.20;91.10
25108;DHT22;13090;53.422;7.670;2023-07-31T08:19:53;19.30;91.00
25108;DHT22;13090;53.422;7.670;2023-07-31T08:25:16;19.50;91.20
25108;DHT22;13090;53.422;7.670;2023-07-31T08:30:36;19.70;91.20
25108;DHT22;13090;53.422;7.670;2023-07-31T08:35:57;19.90;91.00
25108;DHT22;13090;53.422;7.670;2023-07-31T08:41:20;20.00;90.90
25108;DHT22;13090;53.422;7.670;2023-07-31T08:46:41;20.10;90.70
25108;DHT22;13090;53.422;7.670;2023-07-31T08:52:04;20.10;90.70
25108;DHT22;13090;53.422;7.670;2023-07-31T08:57:27;20.20;90.70
25108;DHT22;13090;53.422;7.670;2023-07-31T09:02:52;20.10;90.60
25108;DHT22;13090;53.422;7.670;2023-07-31T09:08:18;20.10;90.60
25108;DHT22;13090;53.422;7.670;2023-07-31T09:13:43;20.10;90.60
25108;DHT22;13090;53.422;7.670;2023-07-31T09:19:04;20.00;90.60
25108;DHT22;13090;53.422;7.670;2023-07-31T09:24:26;19.90;90.60
25108;DHT22;13090;53.422;7.670;2023-07-31T09:29:58;19.90;90.80
25108;DHT22;13090;53.422;7.670;2023-07-31T09:35:21;19.90;91.20
25108;DHT22;13090;53.422;7.670;2023-07-31T09:40:44;19.90;91.10
25108;DHT22;13090;53.422;7.670;2023-07-31T09:46:13;20.00;91.20
25108;DHT22;13090;53.422;7.670;2023-07-31T09:51:35;20.10;91.30
25108;DHT22;13090;53.422;7.670;2023-07-31T09:56:58;20.20;91.30
25108;DHT22;13090;53.422;7.670;2023-07-31T10:02:22;20.30;91.30
25108;DHT22;13090;53.422;7.670;2023-07-31T10:07:52;20.50;91.10
25108;DHT22;13090;53.422;7.670;2023-07-31T10:13:15;20.60;91.10
25108;DHT22;13090;53.422;7.670;2023-07-31T10:18:39;20.70;91.00
25108;DHT22;13090;53.422;7.670;2023-07-31T10:24:01;20.80;90.80
25108;DHT22;13090;53.422;7.670;2023-07-31T10:29:24;20.80;90.80
25108;DHT22;13090;53.422;7.670;2023-07-31T10:34:48;20.90;90.90
25108;DHT22;13090;53.422;7.670;2023-07-31T10:40:11;20.90;90.90
25108;DHT22;13090;53.422;7.670;2023-07-31T10:45:34;21.00;90.80
25108;DHT22;13090;53.422;7.670;2023-07-31T10:50:58;21.10;90.80
25108;DHT22;13090;53.422;7.670;2023-07-31T10:56:20;21.10;90.80
25108;DHT22;13090;53.422;7.670;2023-07-31T11:01:51;21.20;90.90
25108;DHT22;13090;53.422;7.670;2023-07-31T11:07:14;21.30;90.80
25108;DHT22;13090;53.422;7.670;2023-07-31T11:12:36;21.40;90.60
25108;DHT22;13090;53.422;7.670;2023-07-31T11:17:59;21.40;90.60
25108;DHT22;13090;53.422;7.670;2023-07-31T11:23:23;21.50;90.50
25108;DHT22;13090;53.422;7.670;2023-07-31T11:28:45;21.50;90.50
25108;DHT22;13090;53.422;7.670;2023-07-31T11:34:08;21.60;90.40
25108;DHT22;13090;53.422;7.670;2023-07-31T11:39:30;21.60;90.40
25108;DHT22;13090;53.422;7.670;2023-07-31T11:44:52;21.50;90.30
25108;DHT22;13090;53.422;7.670;2023-07-31T11:50:13;21.40;90.40
25108;DHT22;13090;53.422;7.670;2023-07-31T11:55:35;21.30;90.70
25108;DHT22;13090;53.422;7.670;2023-07-31T12:00:57;21.40;91.10
25108;DHT22;13090;53.422;7.670;2023-07-31T12:06:18;21.40;91.10
25108;DHT22;13090;53.422;7.670;2023-07-31T12:11:44;21.50;91.00
25108;DHT22;13090;53.422;7.670;2023-07-31T12:17:05;21.50;91.30
25108;DHT22;13090;53.422;7.670;2023-07-31T12:22:26;21.70;91.90
25108;DHT22;13090;53.422;7.670;2023-07-31T12:27:50;22.20;92.20
25108;DHT22;13090;53.422;7.670;2023-07-31T12:33:15;22.60;91.50
25108;DHT22;13090;53.422;7.670;2023-07-31T12:38:36;22.90;90.90
25108;DHT22;13090;53.422;7.670;2023-07-31T12:43:58;23.10;90.60
25108;DHT22;13090;53.422;7.670;2023-07-31T12:49:19;23.10;90.20
25108;DHT22;13090;53.422;7.670;2023-07-31T12:54:39;22.90;90.20
25108;DHT22;13090;53.422;7.670;2023-07-31T13:00:02;22.90;90.20
25108;DHT22;13090;53.422;7.670;2023-07-31T13:05:23;22.80;90.40
25108;DHT22;13090;53.422;7.670;2023-07-31T13:10:44;22.80;90.30
25108;DHT22;13090;53.422;7.670;2023-07-31T13:16:06;22.80;90.20
25108;DHT22;13090;53.422;7.670;2023-07-31T13:21:27;22.80;90.20
25108;DHT22;13090;53.422;7.670;2023-07-31T13:26:48;22.70;90.20
25108;DHT22;13090;53.422;7.670;2023-07-31T13:32:11;22.70;90.40
25108;DHT22;13090;53.422;7.670;2023-07-31T13:37:31;22.80;90.50
25108;DHT22;13090;53.422;7.670;2023-07-31T13:42:52;22.80;90.50
25108;DHT22;13090;53.422;7.670;2023-07-31T13:48:15;22.90;90.60
25108;DHT22;13090;53.422;7.670;2023-07-31T13:53:35;23.10;90.30
25108;DHT22;13090;53.422;7.670;2023-07-31T13:58:56;23.10;90.10
25108;DHT22;13090;53.422;7.670;2023-07-31T14:04:19;23.10;90.10
25108;DHT22;13090;53.422;7.670;2023-07-31T14:09:39;23.10;90.20
25108;DHT22;13090;53.422;7.670;2023-07-31T14:15:00;23.20;90.30
25108;DHT22;13090;53.422;7.670;2023-07-31T14:20:23;23.30;90.10
25108;DHT22;13090;53.422;7.670;2023-07-31T14:25:44;23.20;89.60
25108;DHT22;13090;53.422;7.670;2023-07-31T14:31:05;23.20;89.10
25108;DHT22;13090;53.422;7.670;2023-07-31T14:36:27;23.00;88.90
25108;DHT22;13090;53.422;7.670;2023-07-31T14:41:48;22.90;89.20
25108;DHT22;13090;53.422;7.670;2023-07-31T14:47:09;22.80;89.20
25108;DHT22;13090;53.422;7.670;2023-07-31T14:52:32;22.60;89.20
25108;DHT22;13090;53.422;7.670;2023-07-31T14:57:53;22.50;89.60
25108;DHT22;13090;53.422;7.670;2023-07-31T15:03:13;22.50;90.10
25108;DHT22;13090;53.422;7.670;2023-07-31T15:08:35;22.60;90.30
25108;DHT22;13090;53.422;7.670;2023-07-31T15:13:56;22.70;90.30
25108;DHT22;13090;53.422;7.670;2023-07-31T15:19:17;22.80;90.30
25108;DHT22;13090;53.422;7.670;2023-07-31T15:24:39;22.90;90.30
25108;DHT22;13090;53.422;7.670;2023-07-31T15:30:00;22.90;90.30
25108;DHT22;13090;53.422;7.670;2023-07-31T15:35:21;23.00;90.20
25108;DHT22;13090;53.422;7.670;2023-07-31T15:40:44;23.00;90.10
25108;DHT22;13090;53.422;7.670;2023-07-31T15:46:05;23.00;90.00
25108;DHT22;13090;53.422;7.670;2023-07-31T15:51:26;22.90;90.00
25108;DHT22;13090;53.422;7.670;2023-07-31T15:56:48;22.90;90.40
25108;DHT22;13090;53.422;7.670;2023-07-31T16:02:10;22.90;90.00
25108;DHT22;13090;53.422;7.670;2023-07-31T16:07:31;22.90;89.90
25108;DHT22;13090;53.422;7.670;2023-07-31T16:12:53;22.90;89.60
25108;DHT22;13090;53.422;7.670;2023-07-31T16:18:13;22.80;89.70
25108;DHT22;13090;53.422;7.670;2023-07-31T16:23:35;22.70;89.70
25108;DHT22;13090;53.422;7.670;2023-07-31T16:28:57;22.60;89.90
25108;DHT22;13090;53.422;7.670;2023-07-31T16:34:18;22.60;90.00
25108;DHT22;13090;53.422;7.670;2023-07-31T16:39:38;22.60;89.80
25108;DHT22;13090;53.422;7.670;2023-07-31T16:45:01;22.60;89.80
25108;DHT22;13090;53.422;7.670;2023-07-31T16:50:21;22.50;89.70
25108;DHT22;13090;53.422;7.670;2023-07-31T16:55:44;22.50;89.60
25108;DHT22;13090;53.422;7.670;2023-07-31T17:01:06;22.40;89.50
25108;DHT22;13090;53.422;7.670;2023-07-31T17:06:28;22.30;89.50
25108;DHT22;13090;53.422;7.670;2023-07-31T17:11:49;22.20;89.50
25108;DHT22;13090;53.422;7.670;2023-07-31T17:17:11;22.20;90.20
25108;DHT22;13090;53.422;7.670;2023-07-31T17:22:31;22.10;89.70
25108;DHT22;13090;53.422;7.670;2023-07-31T17:28:08;22.00;89.80
25108;DHT22;13090;53.422;7.670;2023-07-31T17:33:30;21.90;89.80
25108;DHT22;13090;53.422;7.670;2023-07-31T17:38:51;21.90;90.00
25108;DHT22;13090;53.422;7.670;2023-07-31T17:44:12;21.80;90.00
25108;DHT22;13090;53.422;7.670;2023-07-31T17:49:34;21.80;90.00
25108;DHT22;13090;53.422;7.670;2023-07-31T17:54:55;21.80;90.00
25108;DHT22;13090;53.422;7.670;2023-07-31T18:00:16;21.80;90.00
25108;DHT22;13090;53.422;7.670;2023-07-31T18:05:39;21.70;90.00
25108;DHT22;13090;53.422;7.670;2023-07-31T18:11:00;21.70;90.10
25108;DHT22;13090;53.422;7.670;2023-07-31T18:16:21;21.60;90.20
25108;DHT22;13090;53.422;7.670;2023-07-31T18:21:43;21.50;90.20
25108;DHT22;13090;53.422;7.670;2023-07-31T18:27:04;21.50;90.30
25108;DHT22;13090;53.422;7.670;2023-07-31T18:32:26;21.40;90.30
25108;DHT22;13090;53.422;7.670;2023-07-31T18:37:48;21.40;90.40
25108;DHT22;13090;53.422;7.670;2023-07-31T18:43:09;21.30;90.50
25108;DHT22;13090;53.422;7.670;2023-07-31T18:48:30;21.20;90.50
25108;DHT22;13090;53.422;7.670;2023-07-31T18:53:53;21.20;90.50
25108;DHT22;13090;53.422;7.670;2023-07-31T18:59:14;21.10;90.60
25108;DHT22;13090;53.422;7.670;2023-07-31T19:04:35;21.00;90.60
25108;DHT22;13090;53.422;7.670;2023-07-31T19:09:58;21.00;90.70
25108;DHT22;13090;53.422;7.670;2023-07-31T19:15:36;20.90;90.80
25108;DHT22;13090;53.422;7.670;2023-07-31T19:20:57;20.80;90.80
25108;DHT22;13090;53.422;7.670;2023-07-31T19:26:19;20.70;90.90
25108;DHT22;13090;53.422;7.670;2023-07-31T19:31:40;20.70;91.00
25108;DHT22;13090;53.422;7.670;2023-07-31T19:37:01;20.60;91.00
25108;DHT22;13090;53.422;7.670;2023-07-31T19:42:23;20.60;91.50
25108;DHT22;13090;53.422;7.670;2023-07-31T19:47:44;20.50;91.20
25108;DHT22;13090;53.422;7.670;2023-07-31T19:53:05;20.50;91.20
25108;DHT22;13090;53.422;7.670;2023-07-31T19:58:27;20.50;91.30
25108;DHT22;13090;53.422;7.670;2023-07-31T20:03:48;20.40;91.40
25108;DHT22;13090;53.422;7.670;2023-07-31T20:09:09;20.40;91.40
25108;DHT22;13090;53.422;7.670;2023-07-31T20:14:35;20.40;91.50
25108;DHT22;13090;53.422;7.670;2023-07-31T20:19:56;20.40;91.50
25108;DHT22;13090;53.422;7.670;2023-07-31T20:25:17;20.40;91.50
25108;DHT22;13090;53.422;7.670;2023-07-31T20:30:40;20.40;91.90
25108;DHT22;13090;53.422;7.670;2023-07-31T20:36:01;20.40;91.60
25108;DHT22;13090;53.422;7.670;2023-07-31T20:41:22;20.40;91.60
25108;DHT22;13090;53.422;7.670;2023-07-31T20:46:45;20.30;91.50
25108;DHT22;13090;53.422;7.670;2023-07-31T20:52:07;20.30;91.60
25108;DHT22;13090;53.422;7.670;2023-07-31T20:57:28;20.30;91.60
25108;DHT22;13090;53.422;7.670;2023-07-31T21:02:50;20.20;91.60
25108;DHT22;13090;53.422;7.670;2023-07-31T21:08:12;20.20;91.60
25108;DHT22;13090;53.422;7.670;2023-07-31T21:13:33;20.20;91.60
25108;DHT22;13090;53.422;7.670;2023-07-31T21:18:56;20.10;91.60
25108;DHT22;13090;53.422;7.670;2023-07-31T21:24:16;20.10;91.60
25108;DHT22;13090;53.422;7.670;2023-07-31T21:29:37;20.00;91.50
25108;DHT22;13090;53.422;7.670;2023-07-31T21:34:59;19.90;91.50
25108;DHT22;13090;53.422;7.670;2023-07-31T21:40:20;19.80;91.60
25108;DHT22;13090;53.422;7.670;2023-07-31T21:45:41;19.80;91.70
25108;DHT22;13090;53.422;7.670;2023-07-31T21:51:04;19.70;91.80
25108;DHT22;13090;53.422;7.670;2023-07-31T21:56:25;19.70;91.90
25108;DHT22;13090;53.422;7.670;2023-07-31T22:01:46;19.70;91.90
25108;DHT22;13090;53.422;7.670;2023-07-31T22:07:08;19.70;91.90
25108;DHT22;13090;53.422;7.670;2023-07-31T22:12:29;19.70;91.90
25108;DHT22;13090;53.422;7.670;2023-07-31T22:17:50;19.70;91.90
25108;DHT22;13090;53.422;7.670;2023-07-31T22:23:12;19.70;91.90
25108;DHT22;13090;53.422;7.670;2023-07-31T22:28:35;19.60;91.90
25108;DHT22;13090;53.422;7.670;2023-07-31T22:33:56;19.60;91.90
25108;DHT22;13090;53.422;7.670;2023-07-31T22:39:18;19.60;91.90
25108;DHT22;13090;53.422;7.670;2023-07-31T22:44:39;19.60;91.90
25108;DHT22;13090;53.422;7.670;2023-07-31T22:50:00;19.50;91.90
25108;DHT22;13090;53.422;7.670;2023-07-31T22:55:22;19.50;91.90
25108;DHT22;13090;53.422;7.670;2023-07-31T23:00:42;19.50;91.90
25108;DHT22;13090;53.422;7.670;2023-07-31T23:06:03;19.50;91.90
25108;DHT22;13090;53.422;7.670;2023-07-31T23:11:26;19.50;92.00
25108;DHT22;13090;53.422;7.670;2023-07-31T23:16:47;19.50;92.00
25108;DHT22;13090;53.422;7.670;2023-07-31T23:22:08;19.50;92.00
25108;DHT22;13090;53.422;7.670;2023-07-31T23:27:31;19.50;91.90
25108;DHT22;13090;53.422;7.670;2023-07-31T23:32:51;19.50;92.00
25108;DHT22;13090;53.422;7.670;2023-07-31T23:38:13;19.50;91.90
25108;DHT22;13090;53.422;7.670;2023-07-31T23:43:35;19.50;91.90
25108;DHT22;13090;53.422;7.670;2023-07-31T23:48:55;19.50;91.90
25108;DHT22;13090;53.422;7.670;2023-07-31T23:54:16;19.40;91.90
25108;DHT22;13090;53.422;7.670;2023-07-31T23:59:39;19.40;91.90
